sensor_id;sensor_type;location;lat;lon;timestamp;P1;durP1;ratioP1;P2;durP2;ratioP2
7199;SDS011;3641;49.082;8.200;2024-02-15T00:01:10;9.77;;;3.70;;
7199;SDS011;3641;49.082;8.200;2024-02-15T00:03:36;6.55;;;3.55;;
7199;SDS011;3641;49.082;8.200;2024-02-15T00:06:03;10.25;;;3.63;;
7199;SDS011;3641;49.082;8.200;2024-02-15T00:08:31;9.25;;;4.18;;
7199;SDS011;3641;49.082;8.200;2024-02-15T00:11:00;7.55;;;3.38;;
7199;SDS011;3641;49.082;8.200;2024-02-15T00:13:26;7.57;;;4.05;;
7199;SDS011;3641;49.082;8.200;2024-02-15T00:15:53;8.88;;;3.90;;
7199;SDS011;3641;49.082;8.200;2024-02-15T00:18:18;7.82;;;3.58;;
7199;SDS011;3641;49.082;8.200;2024-02-15T00:20:45;8.40;;;3.72;;
7199;SDS011;3641;49.082;8.200;2024-02-15T00:23:11;9.10;;;3.83;;
7199;SDS011;3641;49.082;8.200;2024-02-15T00:25:39;10.23;;;3.70;;
7199;SDS011;3641;49.082;8.200;2024-02-15T00:28:09;8.77;;;4.38;;
7199;SDS011;3641;49.082;8.200;2024-02-15T00:30:36;7.25;;;3.92;;
7199;SDS011;3641;49.082;8.200;2024-02-15T00:33:03;7.90;;;3.72;;
7199;SDS011;3641;49.082;8.200;2024-02-15T00:35:30;8.15;;;4.00;;
7199;SDS011;3641;49.082;8.200;2024-02-15T00:37:57;8.52;;;4.10;;
7199;SDS011;3641;49.082;8.200;2024-02-15T00:40:23;10.20;;;3.78;;
7199;SDS011;3641;49.082;8.200;2024-02-15T00:42:51;7.25;;;3.75;;
7199;SDS011;3641;49.082;8.200;2024-02-15T00:45:17;8.80;;;3.70;;
7199;SDS011;3641;49.082;8.200;2024-02-15T00:47:44;8.60;;;3.83;;
7199;SDS011;3641;49.082;8.200;2024-02-15T00:50:10;9.73;;;3.80;;
7199;SDS011;3641;49.082;8.200;2024-02-15T00:52:37;12.40;;;3.83;;
7199;SDS011;3641;49.082;8.200;2024-02-15T00:55:03;7.45;;;3.95;;
7199;SDS011;3641;49.082;8.200;2024-02-15T00:57:30;11.65;;;4.40;;
7199;SDS011;3641;49.082;8.200;2024-02-15T00:59:58;7.13;;;4.10;;
7199;SDS011;3641;49.082;8.200;2024-02-15T01:02:27;9.48;;;4.30;;
7199;SDS011;3641;49.082;8.200;2024-02-15T01:04:54;15.35;;;3.95;;
7199;SDS011;3641;49.082;8.200;2024-02-15T01:07:23;9.25;;;4.20;;
7199;SDS011;3641;49.082;8.200;2024-02-15T01:09:51;11.73;;;4.03;;
7199;SDS011;3641;49.082;8.200;2024-02-15T01:12:17;6.95;;;4.03;;
7199;SDS011;3641;49.082;8.200;2024-02-15T01:14:45;7.10;;;4.00;;
7199;SDS011;3641;49.082;8.200;2024-02-15T01:17:14;8.90;;;4.15;;
7199;SDS011;3641;49.082;8.200;2024-02-15T01:19:40;7.88;;;4.03;;
7199;SDS011;3641;49.082;8.200;2024-02-15T01:22:07;9.15;;;3.60;;
7199;SDS011;3641;49.082;8.200;2024-02-15T01:24:33;8.18;;;4.25;;
7199;SDS011;3641;49.082;8.200;2024-02-15T01:26:59;10.40;;;4.78;;
7199;SDS011;3641;49.082;8.200;2024-02-15T01:29:26;9.55;;;4.18;;
7199;SDS011;3641;49.082;8.200;2024-02-15T01:31:52;8.07;;;4.07;;
7199;SDS011;3641;49.082;8.200;2024-02-15T01:34:20;10.50;;;3.90;;
7199;SDS011;3641;49.082;8.200;2024-02-15T01:36:47;9.88;;;4.00;;
7199;SDS011;3641;49.082;8.200;2024-02-15T01:39:15;9.32;;;4.03;;
7199;SDS011;3641;49.082;8.200;2024-02-15T01:41:45;8.48;;;4.03;;
7199;SDS011;3641;49.082;8.200;2024-02-15T01:44:13;10.32;;;3.88;;
7199;SDS011;3641;49.082;8.200;2024-02-15T01:46:39;8.15;;;3.97;;
7199;SDS011;3641;49.082;8.200;2024-02-15T01:49:06;9.45;;;4.03;;
7199;SDS011;3641;49.082;8.200;2024-02-15T01:51:34;8.18;;;4.15;;
7199;SDS011;3641;49.082;8.200;2024-02-15T01:54:02;11.10;;;4.05;;
7199;SDS011;3641;49.082;8.200;2024-02-15T01:56:29;7.10;;;3.75;;
7199;SDS011;3641;49.082;8.200;2024-02-15T01:58:56;9.27;;;4.28;;
7199;SDS011;3641;49.082;8.200;2024-02-15T02:01:23;9.82;;;4.10;;
7199;SDS011;3641;49.082;8.200;2024-02-15T02:03:49;9.45;;;3.78;;
7199;SDS011;3641;49.082;8.200;2024-02-15T02:06:16;8.77;;;4.18;;
7199;SDS011;3641;49.082;8.200;2024-02-15T02:08:43;11.02;;;3.83;;
7199;SDS011;3641;49.082;8.200;2024-02-15T02:11:10;9.77;;;4.13;;
7199;SDS011;3641;49.082;8.200;2024-02-15T02:13:37;10.05;;;4.28;;
7199;SDS011;3641;49.082;8.200;2024-02-15T02:16:04;9.82;;;4.75;;
7199;SDS011;3641;49.082;8.200;2024-02-15T02:18:31;10.70;;;4.10;;
7199;SDS011;3641;49.082;8.200;2024-02-15T02:20:58;10.80;;;4.60;;
7199;SDS011;3641;49.082;8.200;2024-02-15T02:23:26;9.73;;;4.45;;
7199;SDS011;3641;49.082;8.200;2024-02-15T02:25:57;10.45;;;4.15;;
7199;SDS011;3641;49.082;8.200;2024-02-15T02:28:24;8.38;;;4.25;;
7199;SDS011;3641;49.082;8.200;2024-02-15T02:30:51;13.07;;;4.65;;
7199;SDS011;3641;49.082;8.200;2024-02-15T02:33:18;8.98;;;4.22;;
7199;SDS011;3641;49.082;8.200;2024-02-15T02:35:47;11.82;;;4.35;;
7199;SDS011;3641;49.082;8.200;2024-02-15T02:38:14;8.70;;;4.63;;
7199;SDS011;3641;49.082;8.200;2024-02-15T02:40:40;9.27;;;4.80;;
7199;SDS011;3641;49.082;8.200;2024-02-15T02:43:08;11.60;;;4.78;;
7199;SDS011;3641;49.082;8.200;2024-02-15T02:45:35;11.32;;;4.05;;
7199;SDS011;3641;49.082;8.200;2024-02-15T02:48:02;9.23;;;3.95;;
7199;SDS011;3641;49.082;8.200;2024-02-15T02:50:29;7.53;;;4.40;;
7199;SDS011;3641;49.082;8.200;2024-02-15T02:52:55;11.80;;;4.57;;
7199;SDS011;3641;49.082;8.200;2024-02-15T02:55:22;12.05;;;4.90;;
7199;SDS011;3641;49.082;8.200;2024-02-15T02:57:48;11.07;;;4.38;;
7199;SDS011;3641;49.082;8.200;2024-02-15T03:00:17;9.35;;;4.03;;
7199;SDS011;3641;49.082;8.200;2024-02-15T03:02:45;9.02;;;4.25;;
7199;SDS011;3641;49.082;8.200;2024-02-15T03:05:12;11.27;;;4.60;;
7199;SDS011;3641;49.082;8.200;2024-02-15T03:07:39;8.02;;;3.95;;
7199;SDS011;3641;49.082;8.200;2024-02-15T03:10:07;13.10;;;5.18;;
7199;SDS011;3641;49.082;8.200;2024-02-15T03:12:34;9.48;;;4.03;;
7199;SDS011;3641;49.082;8.200;2024-02-15T03:15:01;8.75;;;3.95;;
7199;SDS011;3641;49.082;8.200;2024-02-15T03:17:29;8.50;;;4.25;;
7199;SDS011;3641;49.082;8.200;2024-02-15T03:19:56;10.90;;;4.40;;
7199;SDS011;3641;49.082;8.200;2024-02-15T03:22:22;8.60;;;3.97;;
7199;SDS011;3641;49.082;8.200;2024-02-15T03:24:51;10.75;;;4.40;;
7199;SDS011;3641;49.082;8.200;2024-02-15T03:27:18;11.45;;;4.90;;
7199;SDS011;3641;49.082;8.200;2024-02-15T03:29:48;8.73;;;4.15;;
7199;SDS011;3641;49.082;8.200;2024-02-15T03:32:14;6.47;;;3.88;;
7199;SDS011;3641;49.082;8.200;2024-02-15T03:34:43;10.13;;;4.40;;
7199;SDS011;3641;49.082;8.200;2024-02-15T03:37:10;10.15;;;4.60;;
7199;SDS011;3641;49.082;8.200;2024-02-15T03:39:36;10.63;;;4.32;;
7199;SDS011;3641;49.082;8.200;2024-02-15T03:42:03;10.50;;;4.32;;
7199;SDS011;3641;49.082;8.200;2024-02-15T03:44:30;10.18;;;4.07;;
7199;SDS011;3641;49.082;8.200;2024-02-15T03:46:57;7.78;;;3.90;;
7199;SDS011;3641;49.082;8.200;2024-02-15T03:49:24;9.68;;;4.32;;
7199;SDS011;3641;49.082;8.200;2024-02-15T03:51:51;9.77;;;4.03;;
7199;SDS011;3641;49.082;8.200;2024-02-15T03:54:20;11.68;;;4.47;;
7199;SDS011;3641;49.082;8.200;2024-02-15T03:56:48;10.35;;;4.22;;
7199;SDS011;3641;49.082;8.200;2024-02-15T03:59:17;11.10;;;3.95;;
7199;SDS011;3641;49.082;8.200;2024-02-15T04:01:46;7.82;;;3.80;;
7199;SDS011;3641;49.082;8.200;2024-02-15T04:04:13;9.15;;;3.75;;
7199;SDS011;3641;49.082;8.200;2024-02-15T04:06:40;8.85;;;3.85;;
7199;SDS011;3641;49.082;8.200;2024-02-15T04:09:09;8.35;;;3.70;;
7199;SDS011;3641;49.082;8.200;2024-02-15T04:11:35;7.05;;;3.85;;
7199;SDS011;3641;49.082;8.200;2024-02-15T04:14:02;9.23;;;4.07;;
7199;SDS011;3641;49.082;8.200;2024-02-15T04:16:29;9.02;;;4.20;;
7199;SDS011;3641;49.082;8.200;2024-02-15T04:18:56;12.02;;;4.28;;
7199;SDS011;3641;49.082;8.200;2024-02-15T04:21:23;10.65;;;3.80;;
7199;SDS011;3641;49.082;8.200;2024-02-15T04:23:49;9.88;;;4.10;;
7199;SDS011;3641;49.082;8.200;2024-02-15T04:26:18;8.15;;;4.10;;
7199;SDS011;3641;49.082;8.200;2024-02-15T04:28:45;8.25;;;4.00;;
7199;SDS011;3641;49.082;8.200;2024-02-15T04:31:13;11.93;;;4.68;;
7199;SDS011;3641;49.082;8.200;2024-02-15T04:33:40;11.75;;;4.60;;
7199;SDS011;3641;49.082;8.200;2024-02-15T04:36:06;8.95;;;4.00;;
7199;SDS011;3641;49.082;8.200;2024-02-15T04:38:33;8.77;;;3.90;;
7199;SDS011;3641;49.082;8.200;2024-02-15T04:41:00;12.45;;;4.68;;
7199;SDS011;3641;49.082;8.200;2024-02-15T04:43:30;8.48;;;4.40;;
7199;SDS011;3641;49.082;8.200;2024-02-15T04:45:57;9.57;;;4.40;;
7199;SDS011;3641;49.082;8.200;2024-02-15T04:48:25;10.15;;;4.40;;
7199;SDS011;3641;49.082;8.200;2024-02-15T04:50:52;8.82;;;3.97;;
7199;SDS011;3641;49.082;8.200;2024-02-15T04:53:19;9.13;;;4.18;;
7199;SDS011;3641;49.082;8.200;2024-02-15T04:55:46;11.75;;;4.30;;
7199;SDS011;3641;49.082;8.200;2024-02-15T04:58:12;11.20;;;5.30;;
7199;SDS011;3641;49.082;8.200;2024-02-15T05:00:40;10.45;;;4.93;;
7199;SDS011;3641;49.082;8.200;2024-02-15T05:03:07;9.90;;;5.28;;
7199;SDS011;3641;49.082;8.200;2024-02-15T05:05:33;10.15;;;5.25;;
7199;SDS011;3641;49.082;8.200;2024-02-15T05:08:00;14.10;;;5.63;;
7199;SDS011;3641;49.082;8.200;2024-02-15T05:10:27;12.10;;;5.95;;
7199;SDS011;3641;49.082;8.200;2024-02-15T05:12:53;14.05;;;5.15;;
7199;SDS011;3641;49.082;8.200;2024-02-15T05:15:20;12.98;;;5.13;;
7199;SDS011;3641;49.082;8.200;2024-02-15T05:17:51;11.45;;;5.47;;
7199;SDS011;3641;49.082;8.200;2024-02-15T05:20:20;10.23;;;4.95;;
7199;SDS011;3641;49.082;8.200;2024-02-15T05:22:46;9.75;;;4.70;;
7199;SDS011;3641;49.082;8.200;2024-02-15T05:25:13;10.10;;;5.15;;
7199;SDS011;3641;49.082;8.200;2024-02-15T05:27:40;13.48;;;5.28;;
7199;SDS011;3641;49.082;8.200;2024-02-15T05:30:08;10.35;;;4.68;;
7199;SDS011;3641;49.082;8.200;2024-02-15T05:32:36;12.90;;;4.85;;
7199;SDS011;3641;49.082;8.200;2024-02-15T05:35:09;11.70;;;4.78;;
7199;SDS011;3641;49.082;8.200;2024-02-15T05:37:36;14.48;;;5.95;;
7199;SDS011;3641;49.082;8.200;2024-02-15T05:40:03;14.00;;;5.32;;
7199;SDS011;3641;49.082;8.200;2024-02-15T05:42:30;13.48;;;5.20;;
7199;SDS011;3641;49.082;8.200;2024-02-15T05:44:58;10.88;;;5.32;;
7199;SDS011;3641;49.082;8.200;2024-02-15T05:47:54;12.95;;;5.18;;
7199;SDS011;3641;49.082;8.200;2024-02-15T05:50:22;12.07;;;5.32;;
7199;SDS011;3641;49.082;8.200;2024-02-15T05:52:49;11.02;;;5.18;;
7199;SDS011;3641;49.082;8.200;2024-02-15T05:55:18;10.10;;;5.10;;
7199;SDS011;3641;49.082;8.200;2024-02-15T05:57:44;9.95;;;5.00;;
7199;SDS011;3641;49.082;8.200;2024-02-15T06:00:11;15.35;;;5.93;;
7199;SDS011;3641;49.082;8.200;2024-02-15T06:02:40;13.35;;;5.75;;
7199;SDS011;3641;49.082;8.200;2024-02-15T06:05:07;14.57;;;5.70;;
7199;SDS011;3641;49.082;8.200;2024-02-15T06:07:36;10.85;;;5.18;;
7199;SDS011;3641;49.082;8.200;2024-02-15T06:10:03;11.35;;;5.03;;
7199;SDS011;3641;49.082;8.200;2024-02-15T06:12:32;11.23;;;5.22;;
7199;SDS011;3641;49.082;8.200;2024-02-15T06:14:59;10.15;;;5.32;;
7199;SDS011;3641;49.082;8.200;2024-02-15T06:17:25;9.90;;;5.38;;
7199;SDS011;3641;49.082;8.200;2024-02-15T06:19:51;12.63;;;5.43;;
7199;SDS011;3641;49.082;8.200;2024-02-15T06:22:19;10.93;;;5.53;;
7199;SDS011;3641;49.082;8.200;2024-02-15T06:24:47;12.63;;;5.03;;
7199;SDS011;3641;49.082;8.200;2024-02-15T06:27:13;10.25;;;4.90;;
7199;SDS011;3641;49.082;8.200;2024-02-15T06:29:40;11.63;;;5.00;;
7199;SDS011;3641;49.082;8.200;2024-02-15T06:32:25;11.82;;;5.03;;
7199;SDS011;3641;49.082;8.200;2024-02-15T06:35:09;11.93;;;5.45;;
7199;SDS011;3641;49.082;8.200;2024-02-15T06:37:52;13.13;;;5.50;;
7199;SDS011;3641;49.082;8.200;2024-02-15T06:40:38;6.97;;;4.32;;
7199;SDS011;3641;49.082;8.200;2024-02-15T06:43:05;10.70;;;4.80;;
7199;SDS011;3641;49.082;8.200;2024-02-15T06:45:33;10.07;;;4.90;;
7199;SDS011;3641;49.082;8.200;2024-02-15T06:48:02;9.82;;;5.15;;
7199;SDS011;3641;49.082;8.200;2024-02-15T06:50:29;11.23;;;5.10;;
7199;SDS011;3641;49.082;8.200;2024-02-15T06:52:55;9.75;;;4.53;;
7199;SDS011;3641;49.082;8.200;2024-02-15T06:55:22;11.63;;;5.40;;
7199;SDS011;3641;49.082;8.200;2024-02-15T06:57:50;12.15;;;5.13;;
7199;SDS011;3641;49.082;8.200;2024-02-15T07:00:17;16.48;;;5.50;;
7199;SDS011;3641;49.082;8.200;2024-02-15T07:02:44;12.85;;;5.70;;
7199;SDS011;3641;49.082;8.200;2024-02-15T07:05:10;13.35;;;5.88;;
7199;SDS011;3641;49.082;8.200;2024-02-15T07:07:37;9.85;;;5.40;;
7199;SDS011;3641;49.082;8.200;2024-02-15T07:10:04;10.27;;;5.25;;
7199;SDS011;3641;49.082;8.200;2024-02-15T07:12:31;12.18;;;5.68;;
7199;SDS011;3641;49.082;8.200;2024-02-15T07:14:59;15.45;;;5.72;;
7199;SDS011;3641;49.082;8.200;2024-02-15T07:17:28;10.93;;;5.57;;
7199;SDS011;3641;49.082;8.200;2024-02-15T07:19:55;11.48;;;5.68;;
7199;SDS011;3641;49.082;8.200;2024-02-15T07:22:21;13.15;;;5.63;;
7199;SDS011;3641;49.082;8.200;2024-02-15T07:24:48;11.27;;;5.70;;
7199;SDS011;3641;49.082;8.200;2024-02-15T07:27:14;12.75;;;6.07;;
7199;SDS011;3641;49.082;8.200;2024-02-15T07:29:41;12.75;;;6.05;;
7199;SDS011;3641;49.082;8.200;2024-02-15T07:32:09;14.63;;;5.75;;
7199;SDS011;3641;49.082;8.200;2024-02-15T07:34:37;12.80;;;5.65;;
7199;SDS011;3641;49.082;8.200;2024-02-15T07:37:03;10.20;;;5.40;;
7199;SDS011;3641;49.082;8.200;2024-02-15T07:39:30;10.95;;;5.28;;
7199;SDS011;3641;49.082;8.200;2024-02-15T07:41:57;9.05;;;5.10;;
7199;SDS011;3641;49.082;8.200;2024-02-15T07:44:24;12.90;;;5.60;;
7199;SDS011;3641;49.082;8.200;2024-02-15T07:46:52;11.13;;;5.60;;
7199;SDS011;3641;49.082;8.200;2024-02-15T07:49:20;12.00;;;5.85;;
7199;SDS011;3641;49.082;8.200;2024-02-15T07:51:47;13.98;;;6.35;;
7199;SDS011;3641;49.082;8.200;2024-02-15T07:54:17;13.70;;;6.32;;
7199;SDS011;3641;49.082;8.200;2024-02-15T07:56:45;9.57;;;6.40;;
7199;SDS011;3641;49.082;8.200;2024-02-15T07:59:12;14.45;;;7.32;;
7199;SDS011;3641;49.082;8.200;2024-02-15T08:01:40;12.35;;;6.45;;
7199;SDS011;3641;49.082;8.200;2024-02-15T08:04:06;11.75;;;7.80;;
7199;SDS011;3641;49.082;8.200;2024-02-15T08:06:34;12.80;;;8.07;;
7199;SDS011;3641;49.082;8.200;2024-02-15T08:09:03;15.30;;;9.23;;
7199;SDS011;3641;49.082;8.200;2024-02-15T08:11:30;16.05;;;7.90;;
7199;SDS011;3641;49.082;8.200;2024-02-15T08:13:56;16.40;;;8.07;;
7199;SDS011;3641;49.082;8.200;2024-02-15T08:16:24;15.98;;;8.07;;
7199;SDS011;3641;49.082;8.200;2024-02-15T08:18:52;13.75;;;8.25;;
7199;SDS011;3641;49.082;8.200;2024-02-15T08:21:24;17.75;;;8.73;;
7199;SDS011;3641;49.082;8.200;2024-02-15T08:23:53;16.00;;;9.15;;
7199;SDS011;3641;49.082;8.200;2024-02-15T08:26:20;17.08;;;8.90;;
7199;SDS011;3641;49.082;8.200;2024-02-15T08:28:46;15.18;;;8.13;;
7199;SDS011;3641;49.082;8.200;2024-02-15T08:31:13;14.95;;;8.80;;
7199;SDS011;3641;49.082;8.200;2024-02-15T08:33:40;16.88;;;8.55;;
7199;SDS011;3641;49.082;8.200;2024-02-15T08:36:08;17.13;;;9.00;;
7199;SDS011;3641;49.082;8.200;2024-02-15T08:38:35;16.90;;;8.63;;
7199;SDS011;3641;49.082;8.200;2024-02-15T08:41:03;13.43;;;8.25;;
7199;SDS011;3641;49.082;8.200;2024-02-15T08:43:31;16.15;;;7.63;;
7199;SDS011;3641;49.082;8.200;2024-02-15T08:45:58;11.70;;;7.47;;
7199;SDS011;3641;49.082;8.200;2024-02-15T08:48:25;12.77;;;7.55;;
7199;SDS011;3641;49.082;8.200;2024-02-15T08:50:52;14.38;;;7.53;;
7199;SDS011;3641;49.082;8.200;2024-02-15T08:53:18;17.65;;;7.60;;
7199;SDS011;3641;49.082;8.200;2024-02-15T08:55:46;14.32;;;7.22;;
7199;SDS011;3641;49.082;8.200;2024-02-15T08:58:15;16.80;;;7.82;;
7199;SDS011;3641;49.082;8.200;2024-02-15T09:00:41;15.85;;;7.35;;
7199;SDS011;3641;49.082;8.200;2024-02-15T09:03:09;15.70;;;7.45;;
7199;SDS011;3641;49.082;8.200;2024-02-15T09:05:36;12.55;;;7.13;;
7199;SDS011;3641;49.082;8.200;2024-02-15T09:08:03;11.95;;;7.60;;
7199;SDS011;3641;49.082;8.200;2024-02-15T09:10:30;13.88;;;7.15;;
7199;SDS011;3641;49.082;8.200;2024-02-15T09:12:57;14.77;;;7.30;;
7199;SDS011;3641;49.082;8.200;2024-02-15T09:15:24;10.15;;;6.10;;
7199;SDS011;3641;49.082;8.200;2024-02-15T09:17:51;12.82;;;6.90;;
7199;SDS011;3641;49.082;8.200;2024-02-15T09:20:19;13.98;;;6.97;;
7199;SDS011;3641;49.082;8.200;2024-02-15T09:22:47;12.85;;;6.85;;
7199;SDS011;3641;49.082;8.200;2024-02-15T09:25:14;12.40;;;6.40;;
7199;SDS011;3641;49.082;8.200;2024-02-15T09:27:41;11.20;;;6.18;;
7199;SDS011;3641;49.082;8.200;2024-02-15T09:30:08;10.40;;;6.13;;
7199;SDS011;3641;49.082;8.200;2024-02-15T09:32:38;12.88;;;6.55;;
7199;SDS011;3641;49.082;8.200;2024-02-15T09:35:05;12.75;;;6.50;;
7199;SDS011;3641;49.082;8.200;2024-02-15T09:37:33;10.38;;;5.40;;
7199;SDS011;3641;49.082;8.200;2024-02-15T09:39:59;10.65;;;5.40;;
7199;SDS011;3641;49.082;8.200;2024-02-15T09:42:30;12.10;;;5.28;;
7199;SDS011;3641;49.082;8.200;2024-02-15T09:44:56;12.02;;;5.60;;
7199;SDS011;3641;49.082;8.200;2024-02-15T09:47:23;10.07;;;5.22;;
7199;SDS011;3641;49.082;8.200;2024-02-15T09:49:52;12.00;;;5.50;;
7199;SDS011;3641;49.082;8.200;2024-02-15T09:52:19;13.02;;;5.28;;
7199;SDS011;3641;49.082;8.200;2024-02-15T09:54:45;10.02;;;5.57;;
7199;SDS011;3641;49.082;8.200;2024-02-15T09:57:12;7.72;;;4.70;;
7199;SDS011;3641;49.082;8.200;2024-02-15T09:59:39;7.88;;;4.63;;
7199;SDS011;3641;49.082;8.200;2024-02-15T10:02:06;10.25;;;4.50;;
7199;SDS011;3641;49.082;8.200;2024-02-15T10:04:36;12.25;;;4.88;;
7199;SDS011;3641;49.082;8.200;2024-02-15T10:07:04;11.73;;;4.50;;
7199;SDS011;3641;49.082;8.200;2024-02-15T10:09:33;10.32;;;4.20;;
7199;SDS011;3641;49.082;8.200;2024-02-15T10:12:02;7.28;;;3.55;;
7199;SDS011;3641;49.082;8.200;2024-02-15T10:14:31;10.52;;;2.78;;
7199;SDS011;3641;49.082;8.200;2024-02-15T10:17:05;7.45;;;2.80;;
7199;SDS011;3641;49.082;8.200;2024-02-15T10:19:32;7.45;;;2.65;;
7199;SDS011;3641;49.082;8.200;2024-02-15T10:22:06;7.95;;;3.10;;
7199;SDS011;3641;49.082;8.200;2024-02-15T10:24:34;4.50;;;2.60;;
7199;SDS011;3641;49.082;8.200;2024-02-15T10:27:02;5.43;;;2.40;;
7199;SDS011;3641;49.082;8.200;2024-02-15T10:29:31;6.18;;;2.70;;
7199;SDS011;3641;49.082;8.200;2024-02-15T10:31:59;9.02;;;3.28;;
7199;SDS011;3641;49.082;8.200;2024-02-15T10:34:27;8.85;;;3.75;;
7199;SDS011;3641;49.082;8.200;2024-02-15T10:36:55;9.95;;;4.03;;
7199;SDS011;3641;49.082;8.200;2024-02-15T10:39:37;9.07;;;4.25;;
7199;SDS011;3641;49.082;8.200;2024-02-15T10:42:06;8.05;;;3.53;;
7199;SDS011;3641;49.082;8.200;2024-02-15T10:44:35;9.45;;;3.75;;
7199;SDS011;3641;49.082;8.200;2024-02-15T10:47:03;7.40;;;3.63;;
7199;SDS011;3641;49.082;8.200;2024-02-15T10:49:32;10.88;;;3.97;;
7199;SDS011;3641;49.082;8.200;2024-02-15T10:52:00;9.95;;;3.78;;
7199;SDS011;3641;49.082;8.200;2024-02-15T10:54:43;9.00;;;3.70;;
7199;SDS011;3641;49.082;8.200;2024-02-15T10:57:13;8.55;;;3.42;;
7199;SDS011;3641;49.082;8.200;2024-02-15T10:59:49;8.10;;;3.58;;
7199;SDS011;3641;49.082;8.200;2024-02-15T11:02:24;9.10;;;4.35;;
7199;SDS011;3641;49.082;8.200;2024-02-15T11:04:54;8.48;;;3.60;;
7199;SDS011;3641;49.082;8.200;2024-02-15T11:07:27;9.27;;;3.13;;
7199;SDS011;3641;49.082;8.200;2024-02-15T11:09:56;7.72;;;3.38;;
7199;SDS011;3641;49.082;8.200;2024-02-15T11:12:23;4.40;;;2.63;;
7199;SDS011;3641;49.082;8.200;2024-02-15T11:14:51;7.00;;;2.80;;
7199;SDS011;3641;49.082;8.200;2024-02-15T11:23:27;7.50;;;2.40;;
7199;SDS011;3641;49.082;8.200;2024-02-15T11:25:55;8.82;;;2.45;;
7199;SDS011;3641;49.082;8.200;2024-02-15T11:28:43;5.72;;;2.30;;
7199;SDS011;3641;49.082;8.200;2024-02-15T11:37:08;4.78;;;2.20;;
7199;SDS011;3641;49.082;8.200;2024-02-15T11:39:40;7.85;;;2.40;;
7199;SDS011;3641;49.082;8.200;2024-02-15T11:42:29;7.20;;;2.72;;
7199;SDS011;3641;49.082;8.200;2024-02-15T11:45:05;7.60;;;3.10;;
7199;SDS011;3641;49.082;8.200;2024-02-15T11:47:32;9.85;;;2.90;;
7199;SDS011;3641;49.082;8.200;2024-02-15T11:50:03;5.85;;;2.50;;
7199;SDS011;3641;49.082;8.200;2024-02-15T11:52:31;9.07;;;2.70;;
7199;SDS011;3641;49.082;8.200;2024-02-15T11:55:04;7.22;;;2.50;;
7199;SDS011;3641;49.082;8.200;2024-02-15T11:57:36;5.97;;;3.20;;
7199;SDS011;3641;49.082;8.200;2024-02-15T12:00:18;7.90;;;2.45;;
7199;SDS011;3641;49.082;8.200;2024-02-15T12:03:00;6.25;;;2.60;;
7199;SDS011;3641;49.082;8.200;2024-02-15T12:05:44;6.93;;;3.53;;
7199;SDS011;3641;49.082;8.200;2024-02-15T12:08:28;9.15;;;2.40;;
7199;SDS011;3641;49.082;8.200;2024-02-15T12:11:13;7.90;;;2.60;;
7199;SDS011;3641;49.082;8.200;2024-02-15T12:13:59;7.00;;;2.70;;
7199;SDS011;3641;49.082;8.200;2024-02-15T12:16:43;11.50;;;7.88;;
7199;SDS011;3641;49.082;8.200;2024-02-15T12:19:27;7.32;;;4.47;;
7199;SDS011;3641;49.082;8.200;2024-02-15T12:21:53;7.13;;;3.30;;
7199;SDS011;3641;49.082;8.200;2024-02-15T12:24:22;9.05;;;2.78;;
7199;SDS011;3641;49.082;8.200;2024-02-15T12:26:51;6.65;;;3.05;;
7199;SDS011;3641;49.082;8.200;2024-02-15T12:29:19;6.25;;;2.50;;
7199;SDS011;3641;49.082;8.200;2024-02-15T12:31:46;7.15;;;2.58;;
7199;SDS011;3641;49.082;8.200;2024-02-15T12:34:14;4.88;;;2.50;;
7199;SDS011;3641;49.082;8.200;2024-02-15T12:36:41;4.88;;;2.22;;
7199;SDS011;3641;49.082;8.200;2024-02-15T12:39:08;8.43;;;2.33;;
7199;SDS011;3641;49.082;8.200;2024-02-15T12:41:39;7.03;;;2.47;;
7199;SDS011;3641;49.082;8.200;2024-02-15T12:44:06;5.38;;;2.00;;
7199;SDS011;3641;49.082;8.200;2024-02-15T12:46:36;10.48;;;2.00;;
7199;SDS011;3641;49.082;8.200;2024-02-15T12:49:06;5.78;;;2.10;;
7199;SDS011;3641;49.082;8.200;2024-02-15T12:51:39;9.38;;;2.60;;
7199;SDS011;3641;49.082;8.200;2024-02-15T12:54:08;5.65;;;2.38;;
7199;SDS011;3641;49.082;8.200;2024-02-15T12:56:36;4.28;;;2.00;;
7199;SDS011;3641;49.082;8.200;2024-02-15T12:59:02;7.68;;;2.10;;
7199;SDS011;3641;49.082;8.200;2024-02-15T13:01:29;6.50;;;2.10;;
7199;SDS011;3641;49.082;8.200;2024-02-15T13:03:56;7.85;;;2.30;;
7199;SDS011;3641;49.082;8.200;2024-02-15T13:06:23;4.93;;;2.20;;
7199;SDS011;3641;49.082;8.200;2024-02-15T13:08:49;7.70;;;2.50;;
7199;SDS011;3641;49.082;8.200;2024-02-15T13:11:17;8.40;;;1.80;;
7199;SDS011;3641;49.082;8.200;2024-02-15T13:13:43;3.83;;;1.73;;
7199;SDS011;3641;49.082;8.200;2024-02-15T13:16:10;3.65;;;1.70;;
7199;SDS011;3641;49.082;8.200;2024-02-15T13:18:36;6.60;;;1.80;;
7199;SDS011;3641;49.082;8.200;2024-02-15T13:21:04;8.02;;;1.63;;
7199;SDS011;3641;49.082;8.200;2024-02-15T13:23:31;3.95;;;1.50;;
7199;SDS011;3641;49.082;8.200;2024-02-15T13:26:00;3.05;;;1.48;;
7199;SDS011;3641;49.082;8.200;2024-02-15T13:28:29;3.53;;;1.20;;
7199;SDS011;3641;49.082;8.200;2024-02-15T13:30:56;4.85;;;1.73;;
7199;SDS011;3641;49.082;8.200;2024-02-15T13:33:22;9.10;;;1.60;;
7199;SDS011;3641;49.082;8.200;2024-02-15T13:35:51;5.63;;;1.52;;
7199;SDS011;3641;49.082;8.200;2024-02-15T13:38:19;4.35;;;1.50;;
7199;SDS011;3641;49.082;8.200;2024-02-15T13:40:48;9.32;;;2.22;;
7199;SDS011;3641;49.082;8.200;2024-02-15T13:43:16;4.10;;;1.80;;
7199;SDS011;3641;49.082;8.200;2024-02-15T13:45:43;6.60;;;2.95;;
7199;SDS011;3641;49.082;8.200;2024-02-15T13:48:10;6.38;;;2.30;;
7199;SDS011;3641;49.082;8.200;2024-02-15T13:50:39;5.78;;;1.80;;
7199;SDS011;3641;49.082;8.200;2024-02-15T13:53:06;5.13;;;1.55;;
7199;SDS011;3641;49.082;8.200;2024-02-15T13:55:35;6.70;;;1.60;;
7199;SDS011;3641;49.082;8.200;2024-02-15T13:58:02;4.80;;;1.42;;
7199;SDS011;3641;49.082;8.200;2024-02-15T14:00:29;4.03;;;1.30;;
7199;SDS011;3641;49.082;8.200;2024-02-15T14:02:58;5.10;;;1.48;;
7199;SDS011;3641;49.082;8.200;2024-02-15T14:05:26;3.53;;;1.83;;
7199;SDS011;3641;49.082;8.200;2024-02-15T14:07:54;5.07;;;1.90;;
7199;SDS011;3641;49.082;8.200;2024-02-15T14:10:22;7.40;;;1.67;;
7199;SDS011;3641;49.082;8.200;2024-02-15T14:12:51;3.40;;;1.23;;
7199;SDS011;3641;49.082;8.200;2024-02-15T14:15:20;2.70;;;1.35;;
7199;SDS011;3641;49.082;8.200;2024-02-15T14:17:46;5.70;;;1.48;;
7199;SDS011;3641;49.082;8.200;2024-02-15T14:20:14;4.50;;;1.40;;
7199;SDS011;3641;49.082;8.200;2024-02-15T14:22:40;5.30;;;1.70;;
7199;SDS011;3641;49.082;8.200;2024-02-15T14:25:09;4.50;;;1.70;;
7199;SDS011;3641;49.082;8.200;2024-02-15T14:27:37;6.82;;;1.90;;
7199;SDS011;3641;49.082;8.200;2024-02-15T14:30:08;5.57;;;1.45;;
7199;SDS011;3641;49.082;8.200;2024-02-15T14:32:52;5.50;;;1.70;;
7199;SDS011;3641;49.082;8.200;2024-02-15T14:35:32;6.97;;;1.70;;
7199;SDS011;3641;49.082;8.200;2024-02-15T14:38:01;7.18;;;1.90;;
7199;SDS011;3641;49.082;8.200;2024-02-15T14:40:31;6.68;;;1.50;;
7199;SDS011;3641;49.082;8.200;2024-02-15T14:42:59;4.90;;;1.88;;
7199;SDS011;3641;49.082;8.200;2024-02-15T14:45:27;4.70;;;2.05;;
7199;SDS011;3641;49.082;8.200;2024-02-15T14:47:53;5.00;;;2.25;;
7199;SDS011;3641;49.082;8.200;2024-02-15T14:50:20;4.82;;;1.55;;
7199;SDS011;3641;49.082;8.200;2024-02-15T14:52:48;7.03;;;1.55;;
7199;SDS011;3641;49.082;8.200;2024-02-15T14:55:15;5.28;;;1.75;;
7199;SDS011;3641;49.082;8.200;2024-02-15T14:57:42;5.30;;;1.80;;
7199;SDS011;3641;49.082;8.200;2024-02-15T15:00:09;8.80;;;2.17;;
7199;SDS011;3641;49.082;8.200;2024-02-15T15:02:40;4.90;;;1.83;;
7199;SDS011;3641;49.082;8.200;2024-02-15T15:05:07;4.68;;;1.70;;
7199;SDS011;3641;49.082;8.200;2024-02-15T15:07:52;7.65;;;1.70;;
7199;SDS011;3641;49.082;8.200;2024-02-15T15:10:36;4.15;;;1.85;;
7199;SDS011;3641;49.082;8.200;2024-02-15T15:13:20;5.93;;;1.70;;
7199;SDS011;3641;49.082;8.200;2024-02-15T15:15:48;6.43;;;2.40;;
7199;SDS011;3641;49.082;8.200;2024-02-15T15:18:16;6.82;;;1.90;;
7199;SDS011;3641;49.082;8.200;2024-02-15T15:20:42;5.80;;;1.70;;
7199;SDS011;3641;49.082;8.200;2024-02-15T15:23:09;6.03;;;1.83;;
7199;SDS011;3641;49.082;8.200;2024-02-15T15:25:35;4.88;;;1.70;;
7199;SDS011;3641;49.082;8.200;2024-02-15T15:28:03;3.88;;;1.65;;
7199;SDS011;3641;49.082;8.200;2024-02-15T15:30:30;9.55;;;2.50;;